createdAt,value
2022-08-02T00:01:22.939Z,6.15
2022-08-02T00:03:51.031Z,6.82
2022-08-02T00:06:19.165Z,9.60
2022-08-02T00:08:47.428Z,6.80
2022-08-02T00:11:15.466Z,7.00
2022-08-02T00:13:43.539Z,5.80
2022-08-02T00:16:16.948Z,8.65
2022-08-02T00:21:13.251Z,6.47
2022-08-02T00:24:03.287Z,7.00
2022-08-02T00:26:30.122Z,6.60
2022-08-02T00:28:58.177Z,6.07
2022-08-02T00:31:27.601Z,5.90
2022-08-02T00:34:26.846Z,6.25
2022-08-02T00:36:43.957Z,9.65
2022-08-02T00:39:33.592Z,6.60
2022-08-02T00:41:59.983Z,6.50
2022-08-02T00:44:28.005Z,7.50
2022-08-02T00:46:57.514Z,6.57
2022-08-02T00:49:25.596Z,7.13
2022-08-02T00:51:54.157Z,7.28
2022-08-02T00:54:22.283Z,7.20
2022-08-02T00:56:51.157Z,6.72
2022-08-02T00:59:19.962Z,6.90
2022-08-02T01:01:56.261Z,6.57
2022-08-02T01:04:31.134Z,7.75
2022-08-02T01:07:01.234Z,6.40
2022-08-02T01:09:29.646Z,7.35
2022-08-02T01:11:57.709Z,6.95
2022-08-02T01:14:31.145Z,6.10
2022-08-02T01:17:08.140Z,7.32
2022-08-02T01:19:41.646Z,6.72
2022-08-02T01:23:00.455Z,5.55
2022-08-02T01:25:44.673Z,7.55
2022-08-02T01:28:29.593Z,5.95
2022-08-02T01:31:02.341Z,7.03
2022-08-02T01:33:36.700Z,6.23
2022-08-02T01:36:07.358Z,7.28
2022-08-02T01:38:40.132Z,6.35
2022-08-02T01:41:11.071Z,8.17
2022-08-02T01:43:41.466Z,6.50
2022-08-02T01:46:12.387Z,7.35
2022-08-02T01:48:42.451Z,6.30
2022-08-02T01:51:13.448Z,6.95
2022-08-02T01:53:45.174Z,8.70
2022-08-02T01:56:15.693Z,6.47
2022-08-02T01:58:46.799Z,6.40
2022-08-02T02:01:18.663Z,5.65
2022-08-02T02:03:49.170Z,6.65
2022-08-02T02:06:19.516Z,6.57
2022-08-02T02:08:50.229Z,7.00
2022-08-02T02:12:06.569Z,7.72
2022-08-02T02:14:10.846Z,7.93
2022-08-02T02:16:41.109Z,7.15
2022-08-02T02:19:10.535Z,6.82
2022-08-02T02:21:38.899Z,6.18
2022-08-02T02:24:11.747Z,7.85
2022-08-02T02:26:46.445Z,27.05
2022-08-02T02:29:23.385Z,16.20
2022-08-02T02:31:55.169Z,18.27
2022-08-02T02:34:27.849Z,19.00
2022-08-02T02:36:59.598Z,14.13
2022-08-02T02:39:29.028Z,18.63
2022-08-02T02:41:59.226Z,18.77
2022-08-02T02:44:30.682Z,15.73
2022-08-02T02:47:01.054Z,14.55
2022-08-02T02:49:33.164Z,7.20
2022-08-02T02:52:01.925Z,8.07
2022-08-02T02:54:34.879Z,8.25
2022-08-02T02:57:05.602Z,13.40
2022-08-02T02:59:35.937Z,7.93
2022-08-02T03:02:05.889Z,10.30
2022-08-02T03:04:36.128Z,8.05
2022-08-02T03:07:23.322Z,7.68
2022-08-02T03:09:54.426Z,6.30
2022-08-02T03:12:31.914Z,7.53
2022-08-02T03:15:04.286Z,6.25
2022-08-02T03:17:46.351Z,7.22
2022-08-02T03:20:16.218Z,7.40
2022-08-02T03:22:44.979Z,7.03
2022-08-02T03:25:14.288Z,7.47
2022-08-02T03:27:42.527Z,6.32
2022-08-02T03:30:14.276Z,7.03
2022-08-02T03:32:44.763Z,6.60
2022-08-02T03:35:17.593Z,6.88
2022-08-02T03:37:53.336Z,7.47
2022-08-02T03:40:22.095Z,6.90
2022-08-02T03:42:50.898Z,6.47
2022-08-02T03:45:21.248Z,7.35
2022-08-02T03:47:50.074Z,6.70
2022-08-02T03:50:18.436Z,6.78
2022-08-02T03:52:47.090Z,6.20
2022-08-02T03:55:15.758Z,7.05
2022-08-02T03:57:44.484Z,7.38
2022-08-02T04:00:18.649Z,5.85
2022-08-02T04:02:48.795Z,6.60
2022-08-02T04:05:16.871Z,6.32
2022-08-02T04:08:33.316Z,5.97
2022-08-02T04:10:54.778Z,6.57
2022-08-02T04:13:27.443Z,6.80
2022-08-02T04:16:04.213Z,6.95
2022-08-02T04:18:40.494Z,9.15
2022-08-02T04:21:12.722Z,5.65
2022-08-02T04:23:43.566Z,5.90
2022-08-02T04:26:12.565Z,6.40
2022-08-02T04:28:42.595Z,7.13
2022-08-02T04:31:11.088Z,5.47
2022-08-02T04:33:41.142Z,5.40
2022-08-02T04:36:10.798Z,5.40
2022-08-02T04:38:38.948Z,5.82
2022-08-02T04:41:06.965Z,5.60
2022-08-02T04:43:35.591Z,5.65
2022-08-02T04:46:04.932Z,5.03
2022-08-02T04:48:33.018Z,6.75
2022-08-02T04:51:02.432Z,6.47
2022-08-02T04:53:30.406Z,5.15
2022-08-02T04:55:58.450Z,5.32
2022-08-02T04:58:41.759Z,6.03
2022-08-02T05:01:09.838Z,5.70
2022-08-02T05:03:37.893Z,5.63
2022-08-02T05:06:07.691Z,5.85
2022-08-02T05:08:52.402Z,6.00
2022-08-02T05:11:21.563Z,5.45
2022-08-02T05:13:57.685Z,4.82
2022-08-02T05:16:31.641Z,5.47
2022-08-02T05:19:00.162Z,4.88
2022-08-02T05:21:29.686Z,5.25
2022-08-02T05:23:57.706Z,4.63
2022-08-02T05:26:25.743Z,7.20
2022-08-02T05:28:53.779Z,4.70
2022-08-02T05:31:22.246Z,4.90
2022-08-02T05:33:50.317Z,4.63
2022-08-02T05:36:18.415Z,5.63
2022-08-02T05:38:52.966Z,5.05
2022-08-02T05:41:27.770Z,5.20
2022-08-02T05:43:55.816Z,5.38
2022-08-02T05:46:24.341Z,4.57
2022-08-02T05:48:52.458Z,4.93
2022-08-02T05:51:24.581Z,7.88
2022-08-02T05:54:02.673Z,6.07
2022-08-02T05:56:35.915Z,5.20
2022-08-02T06:01:37.850Z,6.55
2022-08-02T06:04:08.379Z,4.70
2022-08-02T06:06:37.361Z,4.93
2022-08-02T06:09:12.036Z,6.53
2022-08-02T06:12:01.802Z,5.03
2022-08-02T06:14:32.569Z,4.88
2022-08-02T06:17:01.977Z,4.82
2022-08-02T06:19:36.563Z,5.32
2022-08-02T06:22:35.416Z,5.25
2022-08-02T06:25:11.772Z,4.82
2022-08-02T06:28:00.106Z,4.30
2022-08-02T06:30:28.969Z,3.88
2022-08-02T06:32:57.606Z,4.15
2022-08-02T06:35:29.442Z,5.18
2022-08-02T06:38:01.967Z,3.97
2022-08-02T06:40:37.072Z,5.22
2022-08-02T06:43:13.788Z,4.13
2022-08-02T06:45:42.173Z,4.18
2022-08-02T06:48:10.935Z,4.18
2022-08-02T06:50:39.852Z,3.92
2022-08-02T06:53:08.901Z,3.83
2022-08-02T06:55:43.930Z,3.47
2022-08-02T06:58:12.972Z,3.60
2022-08-02T07:00:41.332Z,5.80
2022-08-02T07:03:09.388Z,3.22
2022-08-02T07:05:37.504Z,4.03
2022-08-02T07:08:06.300Z,3.67
2022-08-02T07:10:34.331Z,3.85
2022-08-02T07:13:03.654Z,4.80
2022-08-02T07:15:31.726Z,3.63
2022-08-02T07:18:00.648Z,4.15
2022-08-02T07:20:28.862Z,4.57
2022-08-02T07:22:56.890Z,3.97
2022-08-02T07:25:25.413Z,3.88
2022-08-02T07:28:20.822Z,4.70
2022-08-02T07:30:51.893Z,3.90
2022-08-02T07:33:37.505Z,4.45
2022-08-02T07:36:08.875Z,3.58
2022-08-02T07:38:38.008Z,5.43
2022-08-02T07:41:06.098Z,4.80
2022-08-02T07:43:35.482Z,4.38
2022-08-02T07:46:03.490Z,3.92
2022-08-02T07:48:31.535Z,4.43
2022-08-02T07:50:59.546Z,3.50
2022-08-02T07:53:30.669Z,3.70
2022-08-02T07:56:15.582Z,3.30
2022-08-02T07:58:45.339Z,4.10
2022-08-02T08:01:13.457Z,3.65
2022-08-02T08:03:41.517Z,3.08
2022-08-02T08:06:09.535Z,4.32
2022-08-02T08:08:56.997Z,4.53
2022-08-02T08:11:25.170Z,3.00
2022-08-02T08:13:54.576Z,3.85
2022-08-02T08:16:22.627Z,4.47
2022-08-02T08:18:50.652Z,3.25
2022-08-02T08:21:18.625Z,3.67
2022-08-02T08:23:46.769Z,4.03
2022-08-02T08:26:15.850Z,3.80
2022-08-02T08:28:44.047Z,11.93
2022-08-02T08:31:13.458Z,5.18
2022-08-02T08:33:41.511Z,5.47
2022-08-02T08:36:09.554Z,4.88
2022-08-02T08:38:37.598Z,4.47
2022-08-02T08:41:05.731Z,4.38
2022-08-02T08:43:36.398Z,3.47
2022-08-02T08:46:04.782Z,3.75
2022-08-02T08:48:39.306Z,3.25
2022-08-02T08:51:11.851Z,5.05
2022-08-02T08:53:44.488Z,5.60
2022-08-02T08:56:16.457Z,5.70
2022-08-02T08:58:45.330Z,7.38
2022-08-02T09:01:15.203Z,4.25
2022-08-02T09:03:46.378Z,4.70
2022-08-02T09:06:14.400Z,7.60
2022-08-02T09:08:42.417Z,3.80
2022-08-02T09:11:15.841Z,4.40
2022-08-02T09:13:52.059Z,4.90
2022-08-02T09:16:30.567Z,4.50
2022-08-02T09:19:01.626Z,3.22
2022-08-02T09:21:37.657Z,3.03
2022-08-02T09:24:17.806Z,2.97
2022-08-02T09:26:46.298Z,3.55
2022-08-02T09:29:15.051Z,4.10
2022-08-02T09:31:45.711Z,3.40
2022-08-02T09:34:20.386Z,3.67
2022-08-02T09:36:54.363Z,4.72
2022-08-02T09:39:23.935Z,3.40
2022-08-02T09:41:52.087Z,2.60
2022-08-02T09:44:20.638Z,2.90
2022-08-02T09:46:48.741Z,2.92
2022-08-02T09:49:18.289Z,3.20
2022-08-02T09:51:52.959Z,2.67
2022-08-02T09:54:24.436Z,2.88
2022-08-02T09:56:55.055Z,3.88
2022-08-02T09:59:25.176Z,3.20
2022-08-02T10:02:02.060Z,3.47
2022-08-02T10:04:34.470Z,3.80
2022-08-02T10:07:22.749Z,3.42
2022-08-02T10:09:51.525Z,4.22
2022-08-02T10:12:22.598Z,3.17
2022-08-02T10:14:53.012Z,3.00
2022-08-02T10:17:22.274Z,3.35
2022-08-02T10:20:00.976Z,4.32
2022-08-02T10:22:35.020Z,3.63
2022-08-02T10:25:05.435Z,4.15
2022-08-02T10:27:49.273Z,3.92
2022-08-02T10:30:24.345Z,3.42
2022-08-02T10:32:55.189Z,3.20
2022-08-02T10:35:26.844Z,3.10
2022-08-02T10:37:58.373Z,3.33
2022-08-02T10:40:27.455Z,2.90
2022-08-02T10:43:00.613Z,3.40
2022-08-02T10:45:29.685Z,3.85
2022-08-02T10:47:59.854Z,3.40
2022-08-02T10:50:54.053Z,5.30
2022-08-02T10:53:29.312Z,3.97
2022-08-02T10:55:59.175Z,3.97
2022-08-02T10:58:30.294Z,5.63
2022-08-02T11:00:59.570Z,3.72
2022-08-02T11:03:40.801Z,3.40
2022-08-02T11:06:25.423Z,3.05
2022-08-02T11:09:27.046Z,3.35
2022-08-02T11:12:07.185Z,3.22
2022-08-02T11:14:36.810Z,4.20
2022-08-02T11:17:14.360Z,23.30
2022-08-02T11:20:16.926Z,12.95
2022-08-02T11:22:46.257Z,4.20
2022-08-02T11:26:02.828Z,6.07
2022-08-02T11:28:26.829Z,3.28
2022-08-02T11:30:59.008Z,3.75
2022-08-02T11:33:32.299Z,6.18
2022-08-02T11:36:05.946Z,4.18
2022-08-02T11:38:34.530Z,6.30
2022-08-02T11:41:06.109Z,4.32
2022-08-02T11:43:40.000Z,3.83
2022-08-02T11:46:14.752Z,4.35
2022-08-02T11:48:44.338Z,3.20
2022-08-02T11:51:14.220Z,3.17
2022-08-02T11:53:47.478Z,4.13
2022-08-02T11:56:24.912Z,5.82
2022-08-02T11:59:05.501Z,3.30
2022-08-02T12:01:36.799Z,3.60
2022-08-02T12:04:22.801Z,3.20
2022-08-02T12:07:01.956Z,3.75
2022-08-02T12:09:41.082Z,3.65
2022-08-02T12:12:09.893Z,4.05
2022-08-02T12:14:44.930Z,3.28
2022-08-02T12:17:30.712Z,2.58
2022-08-02T12:19:58.850Z,6.30
2022-08-02T12:22:28.734Z,4.43
2022-08-02T12:24:58.681Z,3.58
2022-08-02T12:27:35.476Z,3.13
2022-08-02T12:30:07.934Z,5.43
2022-08-02T12:32:36.723Z,4.00
2022-08-02T12:35:11.022Z,2.85
2022-08-02T12:37:41.537Z,2.95
2022-08-02T12:40:20.881Z,2.97
2022-08-02T12:42:55.968Z,4.68
2022-08-02T12:45:27.071Z,3.00
2022-08-02T12:48:07.582Z,2.72
2022-08-02T12:50:37.682Z,3.05
2022-08-02T12:53:08.465Z,3.17
2022-08-02T12:56:02.158Z,3.80
2022-08-02T12:58:29.203Z,4.22
2022-08-02T13:01:00.203Z,4.80
2022-08-02T13:04:11.065Z,3.05
2022-08-02T13:06:43.293Z,4.18
2022-08-02T13:09:15.279Z,6.60
2022-08-02T13:11:44.292Z,2.88
2022-08-02T13:14:13.165Z,3.95
2022-08-02T13:16:44.353Z,4.10
2022-08-02T13:19:13.225Z,4.10
2022-08-02T13:22:01.043Z,3.53
2022-08-02T13:24:40.054Z,2.92
2022-08-02T13:27:17.562Z,3.40
2022-08-02T13:29:45.835Z,4.10
2022-08-02T13:32:15.844Z,4.05
2022-08-02T13:34:44.260Z,4.32
2022-08-02T13:37:12.603Z,2.95
2022-08-02T13:39:40.747Z,3.88
2022-08-02T13:42:16.822Z,3.45
2022-08-02T13:44:45.587Z,5.95
2022-08-02T13:47:15.111Z,4.28
2022-08-02T13:50:03.334Z,4.20
2022-08-02T13:52:31.479Z,2.95
2022-08-02T13:54:59.646Z,5.45
2022-08-02T13:57:27.760Z,5.13
2022-08-02T13:59:59.178Z,3.20
2022-08-02T14:02:29.263Z,3.15
2022-08-02T14:04:58.034Z,3.25
2022-08-02T14:07:26.219Z,2.88
2022-08-02T14:09:54.395Z,3.38
2022-08-02T14:12:22.493Z,2.67
2022-08-02T14:14:50.847Z,2.60
2022-08-02T14:17:20.059Z,3.83
2022-08-02T14:19:50.895Z,3.38
2022-08-02T14:22:19.010Z,4.68
2022-08-02T14:24:47.181Z,4.03
2022-08-02T14:27:15.965Z,5.10
2022-08-02T14:29:44.179Z,2.90
2022-08-02T14:32:12.526Z,4.80
2022-08-02T14:34:40.843Z,3.33
2022-08-02T14:37:10.494Z,4.25
2022-08-02T14:39:43.600Z,3.97
2022-08-02T14:42:26.763Z,4.43
2022-08-02T14:44:54.917Z,3.70
2022-08-02T14:47:23.027Z,3.42
2022-08-02T14:49:51.191Z,3.85
2022-08-02T14:52:21.256Z,4.93
2022-08-02T14:54:49.368Z,4.47
2022-08-02T14:57:17.806Z,2.65
2022-08-02T14:59:45.955Z,3.17
2022-08-02T15:02:14.857Z,2.63
2022-08-02T15:04:44.062Z,3.08
2022-08-02T15:07:13.154Z,3.15
2022-08-02T15:09:42.726Z,5.05
2022-08-02T15:12:12.248Z,3.50
2022-08-02T15:14:41.681Z,3.50
2022-08-02T15:17:10.234Z,2.88
2022-08-02T15:19:57.285Z,3.88
2022-08-02T15:22:26.727Z,2.67
2022-08-02T15:24:56.240Z,2.67
2022-08-02T15:27:24.715Z,3.75
2022-08-02T15:29:59.879Z,3.05
2022-08-02T15:32:28.351Z,4.75
2022-08-02T15:34:57.328Z,3.42
2022-08-02T15:37:26.066Z,3.03
2022-08-02T15:40:00.920Z,3.20
2022-08-02T15:42:30.614Z,3.45
2022-08-02T15:44:59.718Z,4.53
2022-08-02T15:47:28.002Z,3.00
2022-08-02T15:49:56.126Z,3.55
2022-08-02T15:52:26.779Z,7.55
2022-08-02T15:54:54.977Z,5.85
2022-08-02T15:57:24.744Z,3.35
2022-08-02T15:59:54.252Z,4.13
2022-08-02T16:02:22.939Z,3.65
2022-08-02T16:04:51.374Z,3.97
2022-08-02T16:07:19.569Z,3.08
2022-08-02T16:09:47.664Z,3.38
2022-08-02T16:12:16.243Z,3.92
2022-08-02T16:14:46.932Z,3.22
2022-08-02T16:17:15.078Z,3.70
2022-08-02T16:20:03.471Z,4.28
2022-08-02T16:22:31.646Z,3.50
2022-08-02T16:24:59.790Z,3.10
2022-08-02T16:27:27.893Z,2.78
2022-08-02T16:29:57.419Z,3.28
2022-08-02T16:32:25.556Z,3.22
2022-08-02T16:35:07.784Z,5.00
2022-08-02T16:40:21.234Z,3.92
2022-08-02T16:42:50.884Z,2.88
2022-08-02T16:45:22.391Z,3.80
2022-08-02T16:47:57.357Z,3.40
2022-08-02T16:50:28.157Z,4.00
2022-08-02T16:52:58.403Z,2.97
2022-08-02T16:55:30.501Z,6.43
2022-08-02T16:57:59.314Z,3.40
2022-08-02T17:00:29.189Z,5.38
2022-08-02T17:02:59.621Z,2.63
2022-08-02T17:05:29.913Z,3.38
2022-08-02T17:08:17.166Z,2.97
2022-08-02T17:10:46.220Z,3.28
2022-08-02T17:13:14.459Z,2.80
2022-08-02T17:16:16.233Z,2.63
2022-08-02T17:18:34.423Z,3.22
2022-08-02T17:21:10.663Z,5.20
2022-08-02T17:24:04.418Z,3.00
2022-08-02T17:26:28.599Z,3.65
2022-08-02T17:29:14.167Z,3.80
2022-08-02T17:32:05.874Z,2.95
2022-08-02T17:34:36.090Z,3.78
2022-08-02T17:37:05.594Z,3.30
2022-08-02T17:39:44.248Z,2.75
2022-08-02T17:42:20.210Z,2.95
2022-08-02T17:44:52.261Z,3.80
2022-08-02T17:47:22.257Z,4.07
2022-08-02T17:49:52.598Z,3.10
2022-08-02T17:52:50.558Z,2.78
2022-08-02T17:55:14.200Z,3.08
2022-08-02T17:57:57.319Z,3.80
2022-08-02T18:00:33.774Z,3.60
2022-08-02T18:03:05.433Z,3.60
2022-08-02T18:05:39.408Z,2.75
2022-08-02T18:08:18.467Z,3.63
2022-08-02T18:10:49.666Z,3.22
2022-08-02T18:13:17.690Z,3.33
2022-08-02T18:15:45.962Z,4.72
2022-08-02T18:18:17.014Z,4.97
2022-08-02T18:20:47.572Z,3.47
2022-08-02T18:23:15.919Z,3.92
2022-08-02T18:25:46.919Z,4.38
2022-08-02T18:28:17.503Z,3.30
2022-08-02T18:30:45.618Z,4.97
2022-08-02T18:33:57.307Z,3.90
2022-08-02T18:36:03.046Z,5.53
2022-08-02T18:38:31.538Z,3.53
2022-08-02T18:41:02.827Z,3.78
2022-08-02T18:43:31.563Z,3.15
2022-08-02T18:46:15.321Z,5.72
2022-08-02T18:48:47.776Z,3.28
2022-08-02T18:51:18.642Z,3.97
2022-08-02T18:53:51.228Z,3.33
2022-08-02T18:56:24.612Z,4.35
2022-08-02T19:01:31.371Z,4.63
2022-08-02T19:04:04.240Z,6.60
2022-08-02T19:06:32.762Z,5.45
2022-08-02T19:09:11.152Z,7.70
2022-08-02T19:11:47.267Z,10.13
2022-08-02T19:14:19.017Z,8.88
2022-08-02T19:16:52.380Z,6.93
2022-08-02T19:19:22.296Z,8.57
2022-08-02T19:22:18.229Z,6.65
2022-08-02T19:24:38.299Z,6.47
2022-08-02T19:27:13.774Z,4.50
2022-08-02T19:29:48.691Z,4.28
2022-08-02T19:32:42.674Z,5.63
2022-08-02T19:35:19.386Z,10.15
2022-08-02T19:37:59.196Z,13.32
2022-08-02T19:40:29.117Z,13.88
2022-08-02T19:44:24.599Z,7.55
2022-08-02T19:45:49.931Z,7.55
2022-08-02T19:48:23.464Z,4.97
2022-08-02T19:50:56.044Z,7.10
2022-08-02T19:53:29.063Z,6.57
2022-08-02T19:56:12.854Z,5.90
2022-08-02T19:58:48.851Z,5.25
2022-08-02T20:01:19.404Z,3.33
2022-08-02T20:03:52.357Z,5.85
2022-08-02T20:06:29.958Z,3.65
2022-08-02T20:09:01.137Z,3.63
2022-08-02T20:11:34.770Z,3.88
2022-08-02T20:14:04.354Z,4.53
2022-08-02T20:16:33.150Z,4.97
2022-08-02T20:19:01.517Z,4.85
2022-08-02T20:21:36.622Z,4.07
2022-08-02T20:24:07.646Z,5.20
2022-08-02T20:26:35.863Z,5.50
2022-08-02T20:29:06.567Z,4.28
2022-08-02T20:31:36.337Z,4.53
2022-08-02T20:34:05.662Z,4.15
2022-08-02T20:36:36.729Z,6.50
2022-08-02T20:39:05.517Z,5.03
2022-08-02T20:41:37.184Z,3.90
2022-08-02T20:44:15.522Z,4.43
2022-08-02T20:46:59.170Z,4.85
2022-08-02T20:49:40.966Z,4.22
2022-08-02T20:52:23.377Z,4.47
2022-08-02T20:54:52.865Z,5.30
2022-08-02T20:57:36.234Z,3.90
2022-08-02T21:00:11.781Z,5.85
2022-08-02T21:02:40.026Z,4.35
2022-08-02T21:05:17.313Z,7.43
2022-08-02T21:07:53.542Z,4.50
2022-08-02T21:10:23.951Z,5.43
2022-08-02T21:12:52.399Z,5.72
2022-08-02T21:15:20.719Z,4.53
2022-08-02T21:17:52.638Z,6.13
2022-08-02T21:20:27.327Z,4.75
2022-08-02T21:22:58.564Z,5.18
2022-08-02T21:25:42.749Z,5.97
2022-08-02T21:28:17.720Z,6.10
2022-08-02T21:30:46.510Z,5.35
2022-08-02T21:33:22.436Z,5.30
2022-08-02T21:35:52.342Z,7.63
2022-08-02T21:38:36.530Z,9.35
2022-08-02T21:41:11.118Z,6.32
2022-08-02T21:43:40.538Z,4.65
2022-08-02T21:46:14.557Z,6.40
2022-08-02T21:48:42.917Z,4.78
2022-08-02T21:51:15.906Z,7.22
2022-08-02T21:54:18.304Z,5.65
2022-08-02T21:56:33.469Z,4.60
2022-08-02T21:59:01.771Z,4.70
2022-08-02T22:01:52.773Z,6.60
2022-08-02T22:04:21.330Z,8.00
2022-08-02T22:06:49.486Z,5.28
2022-08-02T22:09:43.340Z,5.18
2022-08-02T22:12:10.053Z,6.70
2022-08-02T22:14:41.070Z,4.80
2022-08-02T22:17:13.536Z,5.30
2022-08-02T22:19:51.153Z,5.90
2022-08-02T22:22:28.051Z,6.32
2022-08-02T22:24:58.161Z,4.80
2022-08-02T22:30:16.578Z,5.40
2022-08-02T22:33:15.071Z,6.85
2022-08-02T22:35:43.490Z,6.38
2022-08-02T22:38:17.660Z,6.18
2022-08-02T22:40:48.627Z,7.05
2022-08-02T22:43:22.930Z,5.45
2022-08-02T22:45:51.525Z,5.65
2022-08-02T22:48:20.457Z,6.57
2022-08-02T22:50:48.722Z,7.80
2022-08-02T22:53:18.308Z,6.25
2022-08-02T22:55:54.234Z,7.32
2022-08-02T22:58:23.086Z,6.18
2022-08-02T22:59:04.975Z,4.90
2022-08-02T23:00:51.082Z,5.88
2022-08-02T23:03:19.106Z,5.10
2022-08-02T23:05:47.426Z,6.90
2022-08-02T23:08:15.437Z,5.70
2022-08-02T23:10:43.511Z,5.85
2022-08-02T23:13:13.143Z,7.30
2022-08-02T23:15:59.462Z,5.65
2022-08-02T23:18:45.397Z,6.43
2022-08-02T23:21:13.414Z,6.18
2022-08-02T23:23:55.665Z,5.63
2022-08-02T23:26:23.674Z,6.28
2022-08-02T23:28:53.077Z,5.00
2022-08-02T23:31:38.122Z,5.47
2022-08-02T23:34:06.986Z,5.95
2022-08-02T23:36:35.211Z,5.30
2022-08-02T23:39:03.248Z,6.18
2022-08-02T23:41:31.247Z,6.18
2022-08-02T23:44:13.088Z,6.63
2022-08-02T23:46:43.181Z,6.75
2022-08-02T23:49:12.187Z,6.00
2022-08-02T23:51:40.357Z,6.50
2022-08-02T23:54:08.604Z,5.75
2022-08-02T23:56:36.672Z,6.90
2022-08-02T23:59:07.817Z,5.97
